sensor_id;sensor_type;location;lat;lon;timestamp;P1;durP1;ratioP1;P2;durP2;ratioP2
7969;SDS011;4030;52.362;9.206;2024-03-08T00:02:13;13.37;;;11.97;;
7969;SDS011;4030;52.362;9.206;2024-03-08T00:04:39;13.40;;;11.43;;
7969;SDS011;4030;52.362;9.206;2024-03-08T00:07:05;12.67;;;11.37;;
7969;SDS011;4030;52.362;9.206;2024-03-08T00:09:31;12.70;;;10.63;;
7969;SDS011;4030;52.362;9.206;2024-03-08T00:11:57;12.90;;;11.50;;
7969;SDS011;4030;52.362;9.206;2024-03-08T00:14:23;14.13;;;11.90;;
7969;SDS011;4030;52.362;9.206;2024-03-08T00:16:48;12.27;;;10.93;;
7969;SDS011;4030;52.362;9.206;2024-03-08T00:19:14;12.60;;;11.27;;
7969;SDS011;4030;52.362;9.206;2024-03-08T00:21:40;12.10;;;10.83;;
7969;SDS011;4030;52.362;9.206;2024-03-08T00:24:07;13.27;;;11.77;;
7969;SDS011;4030;52.362;9.206;2024-03-08T00:26:33;13.30;;;11.57;;
7969;SDS011;4030;52.362;9.206;2024-03-08T00:28:58;12.97;;;11.57;;
7969;SDS011;4030;52.362;9.206;2024-03-08T00:31:24;14.17;;;12.00;;
7969;SDS011;4030;52.362;9.206;2024-03-08T00:33:50;13.07;;;11.73;;
7969;SDS011;4030;52.362;9.206;2024-03-08T00:36:16;14.17;;;12.30;;
7969;SDS011;4030;52.362;9.206;2024-03-08T00:38:41;14.20;;;12.60;;
7969;SDS011;4030;52.362;9.206;2024-03-08T00:41:07;13.57;;;12.17;;
7969;SDS011;4030;52.362;9.206;2024-03-08T00:43:33;13.50;;;11.83;;
7969;SDS011;4030;52.362;9.206;2024-03-08T00:45:59;14.17;;;12.67;;
7969;SDS011;4030;52.362;9.206;2024-03-08T00:48:26;14.33;;;12.40;;
7969;SDS011;4030;52.362;9.206;2024-03-08T00:50:52;13.10;;;11.70;;
7969;SDS011;4030;52.362;9.206;2024-03-08T00:53:17;14.13;;;12.57;;
7969;SDS011;4030;52.362;9.206;2024-03-08T00:55:43;14.30;;;12.43;;
7969;SDS011;4030;52.362;9.206;2024-03-08T00:58:11;14.03;;;12.47;;
7969;SDS011;4030;52.362;9.206;2024-03-08T01:00:37;14.13;;;12.53;;
7969;SDS011;4030;52.362;9.206;2024-03-08T01:03:04;14.60;;;12.30;;
7969;SDS011;4030;52.362;9.206;2024-03-08T01:05:30;14.20;;;12.70;;
7969;SDS011;4030;52.362;9.206;2024-03-08T01:07:55;13.60;;;12.20;;
7969;SDS011;4030;52.362;9.206;2024-03-08T01:10:21;13.70;;;12.20;;
7969;SDS011;4030;52.362;9.206;2024-03-08T01:12:47;13.20;;;11.87;;
7969;SDS011;4030;52.362;9.206;2024-03-08T01:15:14;13.93;;;12.43;;
7969;SDS011;4030;52.362;9.206;2024-03-08T01:17:40;14.10;;;12.03;;
7969;SDS011;4030;52.362;9.206;2024-03-08T01:20:06;14.43;;;12.10;;
7969;SDS011;4030;52.362;9.206;2024-03-08T01:22:35;14.00;;;12.60;;
7969;SDS011;4030;52.362;9.206;2024-03-08T01:25:01;14.30;;;12.53;;
7969;SDS011;4030;52.362;9.206;2024-03-08T01:27:29;14.03;;;12.37;;
7969;SDS011;4030;52.362;9.206;2024-03-08T01:29:56;14.37;;;12.83;;
7969;SDS011;4030;52.362;9.206;2024-03-08T01:32:21;14.50;;;12.17;;
7969;SDS011;4030;52.362;9.206;2024-03-08T01:34:48;13.67;;;12.17;;
7969;SDS011;4030;52.362;9.206;2024-03-08T01:37:14;14.00;;;12.53;;
7969;SDS011;4030;52.362;9.206;2024-03-08T01:39:39;13.63;;;12.20;;
7969;SDS011;4030;52.362;9.206;2024-03-08T01:42:05;13.93;;;12.50;;
7969;SDS011;4030;52.362;9.206;2024-03-08T01:44:31;14.10;;;12.60;;
7969;SDS011;4030;52.362;9.206;2024-03-08T01:46:56;15.30;;;12.47;;
7969;SDS011;4030;52.362;9.206;2024-03-08T01:49:22;17.57;;;13.20;;
7969;SDS011;4030;52.362;9.206;2024-03-08T01:51:51;14.40;;;12.90;;
7969;SDS011;4030;52.362;9.206;2024-03-08T01:54:17;14.30;;;12.80;;
7969;SDS011;4030;52.362;9.206;2024-03-08T01:56:44;13.83;;;12.43;;
7969;SDS011;4030;52.362;9.206;2024-03-08T01:59:11;15.27;;;12.40;;
7969;SDS011;4030;52.362;9.206;2024-03-08T02:01:39;14.33;;;12.57;;
7969;SDS011;4030;52.362;9.206;2024-03-08T02:04:05;13.67;;;12.27;;
7969;SDS011;4030;52.362;9.206;2024-03-08T02:06:32;14.53;;;12.73;;
7969;SDS011;4030;52.362;9.206;2024-03-08T02:08:58;14.30;;;12.80;;
7969;SDS011;4030;52.362;9.206;2024-03-08T02:11:24;17.13;;;13.27;;
7969;SDS011;4030;52.362;9.206;2024-03-08T02:13:50;13.60;;;12.13;;
7969;SDS011;4030;52.362;9.206;2024-03-08T02:16:21;15.60;;;13.67;;
7969;SDS011;4030;52.362;9.206;2024-03-08T02:18:47;14.03;;;12.53;;
7969;SDS011;4030;52.362;9.206;2024-03-08T02:21:13;14.30;;;12.70;;
7969;SDS011;4030;52.362;9.206;2024-03-08T02:23:46;15.57;;;13.47;;
7969;SDS011;4030;52.362;9.206;2024-03-08T02:26:11;15.73;;;13.50;;
7969;SDS011;4030;52.362;9.206;2024-03-08T02:28:37;15.00;;;13.10;;
7969;SDS011;4030;52.362;9.206;2024-03-08T02:31:04;14.67;;;12.70;;
7969;SDS011;4030;52.362;9.206;2024-03-08T02:33:33;14.37;;;12.80;;
7969;SDS011;4030;52.362;9.206;2024-03-08T02:35:59;13.83;;;12.43;;
7969;SDS011;4030;52.362;9.206;2024-03-08T02:38:25;15.87;;;13.30;;
7969;SDS011;4030;52.362;9.206;2024-03-08T02:40:51;15.17;;;13.57;;
7969;SDS011;4030;52.362;9.206;2024-03-08T02:43:18;16.90;;;13.57;;
7969;SDS011;4030;52.362;9.206;2024-03-08T02:45:47;15.97;;;14.27;;
7969;SDS011;4030;52.362;9.206;2024-03-08T02:48:13;14.90;;;13.33;;
7969;SDS011;4030;52.362;9.206;2024-03-08T02:50:41;15.40;;;12.97;;
7969;SDS011;4030;52.362;9.206;2024-03-08T02:53:10;18.43;;;14.47;;
7969;SDS011;4030;52.362;9.206;2024-03-08T02:55:37;15.33;;;13.60;;
7969;SDS011;4030;52.362;9.206;2024-03-08T02:58:04;15.90;;;13.57;;
7969;SDS011;4030;52.362;9.206;2024-03-08T03:00:30;15.87;;;13.80;;
7969;SDS011;4030;52.362;9.206;2024-03-08T03:02:58;15.53;;;13.93;;
7969;SDS011;4030;52.362;9.206;2024-03-08T03:05:24;15.70;;;13.90;;
7969;SDS011;4030;52.362;9.206;2024-03-08T03:07:50;15.37;;;13.73;;
7969;SDS011;4030;52.362;9.206;2024-03-08T03:10:16;15.43;;;13.87;;
7969;SDS011;4030;52.362;9.206;2024-03-08T03:12:43;16.33;;;14.50;;
7969;SDS011;4030;52.362;9.206;2024-03-08T03:15:10;16.00;;;14.30;;
7969;SDS011;4030;52.362;9.206;2024-03-08T03:17:37;16.03;;;14.23;;
7969;SDS011;4030;52.362;9.206;2024-03-08T03:20:04;16.23;;;14.07;;
7969;SDS011;4030;52.362;9.206;2024-03-08T03:22:39;17.47;;;13.47;;
7969;SDS011;4030;52.362;9.206;2024-03-08T03:25:12;15.73;;;14.10;;
7969;SDS011;4030;52.362;9.206;2024-03-08T03:27:37;16.73;;;14.70;;
7969;SDS011;4030;52.362;9.206;2024-03-08T03:30:05;17.13;;;14.90;;
7969;SDS011;4030;52.362;9.206;2024-03-08T03:32:57;17.67;;;14.50;;
7969;SDS011;4030;52.362;9.206;2024-03-08T03:35:25;15.47;;;13.87;;
7969;SDS011;4030;52.362;9.206;2024-03-08T03:37:52;16.07;;;14.37;;
7969;SDS011;4030;52.362;9.206;2024-03-08T03:40:30;16.83;;;14.23;;
7969;SDS011;4030;52.362;9.206;2024-03-08T03:42:57;16.47;;;14.50;;
7969;SDS011;4030;52.362;9.206;2024-03-08T03:45:23;15.77;;;14.07;;
7969;SDS011;4030;52.362;9.206;2024-03-08T03:47:49;17.57;;;15.10;;
7969;SDS011;4030;52.362;9.206;2024-03-08T03:50:15;17.40;;;14.33;;
7969;SDS011;4030;52.362;9.206;2024-03-08T03:52:41;16.67;;;14.90;;
7969;SDS011;4030;52.362;9.206;2024-03-08T03:55:07;16.90;;;15.00;;
7969;SDS011;4030;52.362;9.206;2024-03-08T03:57:33;16.70;;;14.90;;
7969;SDS011;4030;52.362;9.206;2024-03-08T03:59:59;15.50;;;13.57;;
7969;SDS011;4030;52.362;9.206;2024-03-08T04:02:25;14.67;;;13.17;;
7969;SDS011;4030;52.362;9.206;2024-03-08T04:04:51;16.63;;;14.67;;
7969;SDS011;4030;52.362;9.206;2024-03-08T04:07:19;16.07;;;14.30;;
7969;SDS011;4030;52.362;9.206;2024-03-08T04:09:45;16.53;;;13.80;;
7969;SDS011;4030;52.362;9.206;2024-03-08T04:12:11;16.50;;;14.70;;
7969;SDS011;4030;52.362;9.206;2024-03-08T04:14:38;17.30;;;14.63;;
7969;SDS011;4030;52.362;9.206;2024-03-08T04:17:06;16.37;;;13.87;;
7969;SDS011;4030;52.362;9.206;2024-03-08T04:19:33;19.40;;;15.30;;
7969;SDS011;4030;52.362;9.206;2024-03-08T04:22:00;17.40;;;14.70;;
7969;SDS011;4030;52.362;9.206;2024-03-08T04:24:27;17.97;;;14.90;;
7969;SDS011;4030;52.362;9.206;2024-03-08T04:26:52;16.73;;;14.33;;
7969;SDS011;4030;52.362;9.206;2024-03-08T04:29:18;18.80;;;14.90;;
7969;SDS011;4030;52.362;9.206;2024-03-08T04:31:44;16.60;;;14.50;;
7969;SDS011;4030;52.362;9.206;2024-03-08T04:34:10;17.70;;;15.33;;
7969;SDS011;4030;52.362;9.206;2024-03-08T04:36:36;16.50;;;14.67;;
7969;SDS011;4030;52.362;9.206;2024-03-08T04:39:02;16.43;;;14.33;;
7969;SDS011;4030;52.362;9.206;2024-03-08T04:41:28;15.97;;;13.67;;
7969;SDS011;4030;52.362;9.206;2024-03-08T04:43:55;15.90;;;14.20;;
7969;SDS011;4030;52.362;9.206;2024-03-08T04:46:22;18.17;;;15.17;;
7969;SDS011;4030;52.362;9.206;2024-03-08T04:48:48;16.07;;;13.17;;
7969;SDS011;4030;52.362;9.206;2024-03-08T04:51:14;16.23;;;14.57;;
7969;SDS011;4030;52.362;9.206;2024-03-08T04:53:40;16.77;;;14.17;;
7969;SDS011;4030;52.362;9.206;2024-03-08T04:56:06;16.67;;;14.87;;
7969;SDS011;4030;52.362;9.206;2024-03-08T04:58:33;16.73;;;14.77;;
7969;SDS011;4030;52.362;9.206;2024-03-08T05:01:01;17.43;;;14.77;;
7969;SDS011;4030;52.362;9.206;2024-03-08T05:03:27;18.10;;;13.93;;
7969;SDS011;4030;52.362;9.206;2024-03-08T05:05:53;16.57;;;13.87;;
7969;SDS011;4030;52.362;9.206;2024-03-08T05:08:19;16.97;;;14.47;;
7969;SDS011;4030;52.362;9.206;2024-03-08T05:10:44;15.87;;;13.87;;
7969;SDS011;4030;52.362;9.206;2024-03-08T05:13:11;17.10;;;13.90;;
7969;SDS011;4030;52.362;9.206;2024-03-08T05:15:38;17.03;;;14.47;;
7969;SDS011;4030;52.362;9.206;2024-03-08T05:18:04;15.83;;;14.07;;
7969;SDS011;4030;52.362;9.206;2024-03-08T05:20:30;17.50;;;14.83;;
7969;SDS011;4030;52.362;9.206;2024-03-08T05:22:56;17.23;;;14.33;;
7969;SDS011;4030;52.362;9.206;2024-03-08T05:25:25;16.57;;;13.77;;
7969;SDS011;4030;52.362;9.206;2024-03-08T05:27:51;17.90;;;14.57;;
7969;SDS011;4030;52.362;9.206;2024-03-08T05:30:17;17.20;;;14.33;;
7969;SDS011;4030;52.362;9.206;2024-03-08T05:32:43;17.17;;;14.00;;
7969;SDS011;4030;52.362;9.206;2024-03-08T05:35:10;16.83;;;13.70;;
7969;SDS011;4030;52.362;9.206;2024-03-08T05:37:37;16.80;;;14.27;;
7969;SDS011;4030;52.362;9.206;2024-03-08T05:40:04;16.93;;;13.70;;
7969;SDS011;4030;52.362;9.206;2024-03-08T05:42:34;16.67;;;14.70;;
7969;SDS011;4030;52.362;9.206;2024-03-08T05:45:01;17.43;;;13.27;;
7969;SDS011;4030;52.362;9.206;2024-03-08T05:47:34;15.07;;;13.47;;
7969;SDS011;4030;52.362;9.206;2024-03-08T05:50:00;15.80;;;13.47;;
7969;SDS011;4030;52.362;9.206;2024-03-08T05:52:26;17.07;;;14.60;;
7969;SDS011;4030;52.362;9.206;2024-03-08T05:54:52;17.53;;;14.07;;
7969;SDS011;4030;52.362;9.206;2024-03-08T05:57:18;17.30;;;14.80;;
7969;SDS011;4030;52.362;9.206;2024-03-08T05:59:44;16.70;;;14.93;;
7969;SDS011;4030;52.362;9.206;2024-03-08T06:02:09;16.03;;;14.30;;
7969;SDS011;4030;52.362;9.206;2024-03-08T06:04:35;17.97;;;15.20;;
7969;SDS011;4030;52.362;9.206;2024-03-08T06:07:01;19.17;;;14.93;;
7969;SDS011;4030;52.362;9.206;2024-03-08T06:09:28;18.47;;;14.73;;
7969;SDS011;4030;52.362;9.206;2024-03-08T06:11:54;17.73;;;14.53;;
7969;SDS011;4030;52.362;9.206;2024-03-08T06:14:22;18.10;;;15.63;;
7969;SDS011;4030;52.362;9.206;2024-03-08T06:16:48;18.47;;;15.53;;
7969;SDS011;4030;52.362;9.206;2024-03-08T06:19:15;17.37;;;14.60;;
7969;SDS011;4030;52.362;9.206;2024-03-08T06:21:40;18.03;;;15.37;;
7969;SDS011;4030;52.362;9.206;2024-03-08T06:24:06;17.60;;;14.67;;
7969;SDS011;4030;52.362;9.206;2024-03-08T06:26:32;17.53;;;14.80;;
7969;SDS011;4030;52.362;9.206;2024-03-08T06:28:57;17.53;;;15.17;;
7969;SDS011;4030;52.362;9.206;2024-03-08T06:31:23;16.20;;;14.50;;
7969;SDS011;4030;52.362;9.206;2024-03-08T06:33:49;18.50;;;15.30;;
7969;SDS011;4030;52.362;9.206;2024-03-08T06:36:18;17.27;;;15.20;;
7969;SDS011;4030;52.362;9.206;2024-03-08T06:38:44;16.13;;;14.43;;
7969;SDS011;4030;52.362;9.206;2024-03-08T06:41:11;16.53;;;14.63;;
7969;SDS011;4030;52.362;9.206;2024-03-08T06:43:40;18.67;;;14.93;;
7969;SDS011;4030;52.362;9.206;2024-03-08T06:46:10;16.70;;;14.57;;
7969;SDS011;4030;52.362;9.206;2024-03-08T06:48:38;17.50;;;14.93;;
7969;SDS011;4030;52.362;9.206;2024-03-08T06:51:04;16.57;;;14.67;;
7969;SDS011;4030;52.362;9.206;2024-03-08T06:53:30;17.60;;;15.03;;
7969;SDS011;4030;52.362;9.206;2024-03-08T06:55:56;18.80;;;15.50;;
7969;SDS011;4030;52.362;9.206;2024-03-08T06:58:23;18.33;;;15.93;;
7969;SDS011;4030;52.362;9.206;2024-03-08T07:00:49;19.30;;;16.27;;
7969;SDS011;4030;52.362;9.206;2024-03-08T07:03:18;19.20;;;16.87;;
7969;SDS011;4030;52.362;9.206;2024-03-08T07:05:44;17.83;;;15.93;;
7969;SDS011;4030;52.362;9.206;2024-03-08T07:08:09;20.23;;;16.83;;
7969;SDS011;4030;52.362;9.206;2024-03-08T07:10:39;19.53;;;16.93;;
7969;SDS011;4030;52.362;9.206;2024-03-08T07:13:08;19.20;;;16.87;;
7969;SDS011;4030;52.362;9.206;2024-03-08T07:15:34;18.50;;;16.07;;
7969;SDS011;4030;52.362;9.206;2024-03-08T07:18:00;19.67;;;16.50;;
7969;SDS011;4030;52.362;9.206;2024-03-08T07:20:26;17.97;;;15.93;;
7969;SDS011;4030;52.362;9.206;2024-03-08T07:22:51;18.27;;;16.30;;
7969;SDS011;4030;52.362;9.206;2024-03-08T07:25:17;20.67;;;17.20;;
7969;SDS011;4030;52.362;9.206;2024-03-08T07:27:52;20.43;;;16.83;;
7969;SDS011;4030;52.362;9.206;2024-03-08T07:30:19;19.33;;;16.73;;
7969;SDS011;4030;52.362;9.206;2024-03-08T07:33:06;18.30;;;16.30;;
7969;SDS011;4030;52.362;9.206;2024-03-08T07:35:32;19.80;;;17.23;;
7969;SDS011;4030;52.362;9.206;2024-03-08T07:38:02;19.80;;;17.00;;
7969;SDS011;4030;52.362;9.206;2024-03-08T07:40:30;18.93;;;16.67;;
7969;SDS011;4030;52.362;9.206;2024-03-08T07:43:09;20.87;;;17.10;;
7969;SDS011;4030;52.362;9.206;2024-03-08T07:45:36;20.10;;;16.43;;
7969;SDS011;4030;52.362;9.206;2024-03-08T07:48:02;18.50;;;16.30;;
7969;SDS011;4030;52.362;9.206;2024-03-08T07:50:29;19.00;;;16.47;;
7969;SDS011;4030;52.362;9.206;2024-03-08T07:52:55;20.20;;;17.57;;
7969;SDS011;4030;52.362;9.206;2024-03-08T07:55:20;19.43;;;17.37;;
7969;SDS011;4030;52.362;9.206;2024-03-08T07:57:49;18.30;;;16.37;;
7969;SDS011;4030;52.362;9.206;2024-03-08T08:00:15;20.40;;;17.20;;
7969;SDS011;4030;52.362;9.206;2024-03-08T08:02:43;19.33;;;17.33;;
7969;SDS011;4030;52.362;9.206;2024-03-08T08:05:11;18.77;;;16.73;;
7969;SDS011;4030;52.362;9.206;2024-03-08T08:07:38;20.63;;;17.80;;
7969;SDS011;4030;52.362;9.206;2024-03-08T08:10:05;19.63;;;17.53;;
7969;SDS011;4030;52.362;9.206;2024-03-08T08:12:32;20.00;;;17.57;;
7969;SDS011;4030;52.362;9.206;2024-03-08T08:14:59;19.87;;;17.80;;
7969;SDS011;4030;52.362;9.206;2024-03-08T08:17:24;19.73;;;17.63;;
7969;SDS011;4030;52.362;9.206;2024-03-08T08:19:50;19.63;;;17.60;;
7969;SDS011;4030;52.362;9.206;2024-03-08T08:22:16;19.00;;;16.80;;
7969;SDS011;4030;52.362;9.206;2024-03-08T08:24:43;20.13;;;17.17;;
7969;SDS011;4030;52.362;9.206;2024-03-08T08:27:08;19.60;;;17.53;;
7969;SDS011;4030;52.362;9.206;2024-03-08T08:29:34;19.80;;;17.80;;
7969;SDS011;4030;52.362;9.206;2024-03-08T08:32:00;20.07;;;17.87;;
7969;SDS011;4030;52.362;9.206;2024-03-08T08:34:26;18.90;;;17.00;;
7969;SDS011;4030;52.362;9.206;2024-03-08T08:36:52;19.23;;;17.20;;
7969;SDS011;4030;52.362;9.206;2024-03-08T08:39:18;20.03;;;17.33;;
7969;SDS011;4030;52.362;9.206;2024-03-08T08:41:44;20.50;;;18.30;;
7969;SDS011;4030;52.362;9.206;2024-03-08T08:44:09;20.43;;;18.27;;
7969;SDS011;4030;52.362;9.206;2024-03-08T08:46:37;20.80;;;18.60;;
7969;SDS011;4030;52.362;9.206;2024-03-08T08:49:03;20.03;;;17.97;;
7969;SDS011;4030;52.362;9.206;2024-03-08T08:51:30;18.97;;;16.93;;
7969;SDS011;4030;52.362;9.206;2024-03-08T08:53:58;19.07;;;17.07;;
7969;SDS011;4030;52.362;9.206;2024-03-08T08:56:24;19.00;;;17.00;;
7969;SDS011;4030;52.362;9.206;2024-03-08T08:58:50;19.87;;;17.73;;
7969;SDS011;4030;52.362;9.206;2024-03-08T09:01:18;19.33;;;17.37;;
7969;SDS011;4030;52.362;9.206;2024-03-08T09:03:44;19.03;;;17.03;;
7969;SDS011;4030;52.362;9.206;2024-03-08T09:06:11;20.87;;;18.00;;
7969;SDS011;4030;52.362;9.206;2024-03-08T09:08:38;19.43;;;17.40;;
7969;SDS011;4030;52.362;9.206;2024-03-08T09:11:04;20.23;;;17.47;;
7969;SDS011;4030;52.362;9.206;2024-03-08T09:13:30;19.40;;;17.43;;
7969;SDS011;4030;52.362;9.206;2024-03-08T09:15:58;19.77;;;17.67;;
7969;SDS011;4030;52.362;9.206;2024-03-08T09:18:23;20.07;;;17.83;;
7969;SDS011;4030;52.362;9.206;2024-03-08T09:20:49;18.80;;;16.85;;
7969;SDS011;4030;52.362;9.206;2024-03-08T09:23:16;17.92;;;15.98;;
7969;SDS011;4030;52.362;9.206;2024-03-08T09:25:44;18.38;;;16.33;;
7969;SDS011;4030;52.362;9.206;2024-03-08T09:28:11;18.35;;;16.48;;
7969;SDS011;4030;52.362;9.206;2024-03-08T09:30:37;17.48;;;15.68;;
7969;SDS011;4030;52.362;9.206;2024-03-08T09:33:04;18.48;;;16.67;;
7969;SDS011;4030;52.362;9.206;2024-03-08T09:35:30;17.70;;;15.90;;
7969;SDS011;4030;52.362;9.206;2024-03-08T09:37:56;18.33;;;16.50;;
7969;SDS011;4030;52.362;9.206;2024-03-08T09:40:22;17.70;;;16.00;;
7969;SDS011;4030;52.362;9.206;2024-03-08T09:42:50;16.98;;;15.38;;
7969;SDS011;4030;52.362;9.206;2024-03-08T09:45:17;17.25;;;15.50;;
7969;SDS011;4030;52.362;9.206;2024-03-08T09:47:49;16.45;;;14.82;;
7969;SDS011;4030;52.362;9.206;2024-03-08T09:50:15;17.88;;;16.08;;
7969;SDS011;4030;52.362;9.206;2024-03-08T09:52:43;17.98;;;16.15;;
7969;SDS011;4030;52.362;9.206;2024-03-08T09:55:12;19.02;;;17.05;;
7969;SDS011;4030;52.362;9.206;2024-03-08T09:57:38;17.58;;;15.80;;
7969;SDS011;4030;52.362;9.206;2024-03-08T10:00:05;17.13;;;15.45;;
7969;SDS011;4030;52.362;9.206;2024-03-08T10:02:46;18.17;;;16.27;;
7969;SDS011;4030;52.362;9.206;2024-03-08T10:05:12;17.08;;;15.38;;
7969;SDS011;4030;52.362;9.206;2024-03-08T10:07:39;17.20;;;15.40;;
7969;SDS011;4030;52.362;9.206;2024-03-08T10:10:05;16.95;;;15.25;;
7969;SDS011;4030;52.362;9.206;2024-03-08T10:12:33;15.68;;;14.18;;
7969;SDS011;4030;52.362;9.206;2024-03-08T10:14:59;15.13;;;13.57;;
7969;SDS011;4030;52.362;9.206;2024-03-08T10:17:26;15.93;;;14.30;;
7969;SDS011;4030;52.362;9.206;2024-03-08T10:19:52;15.13;;;13.70;;
7969;SDS011;4030;52.362;9.206;2024-03-08T10:22:18;15.38;;;13.90;;
7969;SDS011;4030;52.362;9.206;2024-03-08T10:24:45;15.77;;;14.23;;
7969;SDS011;4030;52.362;9.206;2024-03-08T10:27:11;13.95;;;12.55;;
7969;SDS011;4030;52.362;9.206;2024-03-08T10:29:37;14.80;;;13.30;;
7969;SDS011;4030;52.362;9.206;2024-03-08T10:32:08;13.63;;;12.23;;
7969;SDS011;4030;52.362;9.206;2024-03-08T10:34:34;13.77;;;12.43;;
7969;SDS011;4030;52.362;9.206;2024-03-08T10:37:03;14.95;;;13.45;;
7969;SDS011;4030;52.362;9.206;2024-03-08T10:39:36;15.13;;;13.63;;
7969;SDS011;4030;52.362;9.206;2024-03-08T10:42:03;15.02;;;13.43;;
7969;SDS011;4030;52.362;9.206;2024-03-08T10:47:00;15.00;;;13.38;;
7969;SDS011;4030;52.362;9.206;2024-03-08T10:49:50;15.85;;;13.07;;
7969;SDS011;4030;52.362;9.206;2024-03-08T10:52:20;13.15;;;11.88;;
7969;SDS011;4030;52.362;9.206;2024-03-08T10:54:47;13.52;;;12.23;;
7969;SDS011;4030;52.362;9.206;2024-03-08T10:57:15;12.68;;;11.38;;
7969;SDS011;4030;52.362;9.206;2024-03-08T10:59:45;13.07;;;11.77;;
7969;SDS011;4030;52.362;9.206;2024-03-08T11:02:15;12.98;;;11.68;;
7969;SDS011;4030;52.362;9.206;2024-03-08T11:04:46;12.05;;;10.88;;
7969;SDS011;4030;52.362;9.206;2024-03-08T11:07:14;14.35;;;11.55;;
7969;SDS011;4030;52.362;9.206;2024-03-08T11:09:43;15.52;;;10.77;;
7969;SDS011;4030;52.362;9.206;2024-03-08T11:12:20;11.48;;;10.32;;
7969;SDS011;4030;52.362;9.206;2024-03-08T11:14:51;11.82;;;10.63;;
7969;SDS011;4030;52.362;9.206;2024-03-08T11:19:59;11.05;;;9.95;;
7969;SDS011;4030;52.362;9.206;2024-03-08T11:22:31;11.43;;;10.43;;
7969;SDS011;4030;52.362;9.206;2024-03-08T11:25:01;10.35;;;9.35;;
7969;SDS011;4030;52.362;9.206;2024-03-08T11:27:33;10.82;;;9.23;;
7969;SDS011;4030;52.362;9.206;2024-03-08T11:30:00;10.10;;;9.02;;
7969;SDS011;4030;52.362;9.206;2024-03-08T11:32:37;9.70;;;8.70;;
7969;SDS011;4030;52.362;9.206;2024-03-08T11:35:17;9.65;;;8.70;;
7969;SDS011;4030;52.362;9.206;2024-03-08T11:37:45;10.32;;;8.98;;
7969;SDS011;4030;52.362;9.206;2024-03-08T11:40:12;9.63;;;8.73;;
7969;SDS011;4030;52.362;9.206;2024-03-08T11:42:48;9.85;;;8.85;;
7969;SDS011;4030;52.362;9.206;2024-03-08T11:45:14;9.95;;;8.95;;
7969;SDS011;4030;52.362;9.206;2024-03-08T11:47:42;10.10;;;9.10;;
7969;SDS011;4030;52.362;9.206;2024-03-08T11:50:14;9.18;;;8.35;;
7969;SDS011;4030;52.362;9.206;2024-03-08T11:52:40;10.40;;;9.40;;
7969;SDS011;4030;52.362;9.206;2024-03-08T11:55:07;9.93;;;8.93;;
7969;SDS011;4030;52.362;9.206;2024-03-08T11:57:33;10.63;;;9.55;;
7969;SDS011;4030;52.362;9.206;2024-03-08T11:59:59;10.57;;;9.48;;
7969;SDS011;4030;52.362;9.206;2024-03-08T12:02:31;10.55;;;9.52;;
7969;SDS011;4030;52.362;9.206;2024-03-08T12:05:01;9.70;;;8.70;;
7969;SDS011;4030;52.362;9.206;2024-03-08T12:07:35;9.38;;;8.48;;
7969;SDS011;4030;52.362;9.206;2024-03-08T12:10:14;10.20;;;9.20;;
7969;SDS011;4030;52.362;9.206;2024-03-08T12:12:45;9.35;;;8.45;;
7969;SDS011;4030;52.362;9.206;2024-03-08T12:15:13;10.02;;;9.13;;
7969;SDS011;4030;52.362;9.206;2024-03-08T12:17:41;9.10;;;8.20;;
7969;SDS011;4030;52.362;9.206;2024-03-08T12:20:14;9.48;;;8.48;;
7969;SDS011;4030;52.362;9.206;2024-03-08T12:22:44;9.20;;;8.20;;
7969;SDS011;4030;52.362;9.206;2024-03-08T12:25:10;9.38;;;8.48;;
7969;SDS011;4030;52.362;9.206;2024-03-08T12:27:38;8.88;;;7.97;;
7969;SDS011;4030;52.362;9.206;2024-03-08T12:35:21;8.40;;;7.60;;
7969;SDS011;4030;52.362;9.206;2024-03-08T12:37:50;8.48;;;7.65;;
7969;SDS011;4030;52.362;9.206;2024-03-08T12:40:31;8.48;;;7.68;;
7969;SDS011;4030;52.362;9.206;2024-03-08T12:42:59;8.32;;;7.53;;
7969;SDS011;4030;52.362;9.206;2024-03-08T12:45:26;9.25;;;7.68;;
7969;SDS011;4030;52.362;9.206;2024-03-08T12:47:55;8.70;;;7.80;;
7969;SDS011;4030;52.362;9.206;2024-03-08T12:50:21;8.95;;;8.05;;
7969;SDS011;4030;52.362;9.206;2024-03-08T12:52:48;9.75;;;8.27;;
7969;SDS011;4030;52.362;9.206;2024-03-08T12:55:14;8.70;;;7.90;;
7969;SDS011;4030;52.362;9.206;2024-03-08T12:57:41;8.68;;;7.88;;
7969;SDS011;4030;52.362;9.206;2024-03-08T13:00:07;8.95;;;8.13;;
7969;SDS011;4030;52.362;9.206;2024-03-08T13:02:47;9.07;;;8.23;;
7969;SDS011;4030;52.362;9.206;2024-03-08T13:05:13;8.05;;;7.25;;
7969;SDS011;4030;52.362;9.206;2024-03-08T13:07:39;9.30;;;8.10;;
7969;SDS011;4030;52.362;9.206;2024-03-08T13:10:12;8.73;;;7.72;;
7969;SDS011;4030;52.362;9.206;2024-03-08T13:12:42;8.43;;;7.53;;
7969;SDS011;4030;52.362;9.206;2024-03-08T13:15:08;8.40;;;7.47;;
7969;SDS011;4030;52.362;9.206;2024-03-08T13:17:36;8.38;;;7.57;;
7969;SDS011;4030;52.362;9.206;2024-03-08T13:20:05;8.88;;;7.97;;
7969;SDS011;4030;52.362;9.206;2024-03-08T13:22:32;9.07;;;8.18;;
7969;SDS011;4030;52.362;9.206;2024-03-08T13:24:58;9.55;;;7.90;;
7969;SDS011;4030;52.362;9.206;2024-03-08T13:27:26;8.40;;;7.53;;
7969;SDS011;4030;52.362;9.206;2024-03-08T13:29:54;9.25;;;8.35;;
7969;SDS011;4030;52.362;9.206;2024-03-08T13:32:20;8.68;;;7.82;;
7969;SDS011;4030;52.362;9.206;2024-03-08T13:34:47;10.52;;;7.65;;
7969;SDS011;4030;52.362;9.206;2024-03-08T13:37:13;8.48;;;7.60;;
7969;SDS011;4030;52.362;9.206;2024-03-08T13:39:41;8.00;;;7.18;;
7969;SDS011;4030;52.362;9.206;2024-03-08T13:42:09;8.45;;;7.47;;
7969;SDS011;4030;52.362;9.206;2024-03-08T13:44:38;7.80;;;7.10;;
7969;SDS011;4030;52.362;9.206;2024-03-08T13:47:11;8.73;;;7.82;;
7969;SDS011;4030;52.362;9.206;2024-03-08T13:49:41;8.98;;;8.07;;
7969;SDS011;4030;52.362;9.206;2024-03-08T13:52:08;9.68;;;8.77;;
7969;SDS011;4030;52.362;9.206;2024-03-08T13:54:35;9.27;;;8.38;;
7969;SDS011;4030;52.362;9.206;2024-03-08T13:57:01;8.68;;;7.78;;
7969;SDS011;4030;52.362;9.206;2024-03-08T13:59:29;9.00;;;7.95;;
7969;SDS011;4030;52.362;9.206;2024-03-08T14:01:57;8.52;;;7.68;;
7969;SDS011;4030;52.362;9.206;2024-03-08T14:04:26;8.65;;;7.85;;
7969;SDS011;4030;52.362;9.206;2024-03-08T14:06:52;9.43;;;7.65;;
7969;SDS011;4030;52.362;9.206;2024-03-08T14:09:22;8.57;;;7.75;;
7969;SDS011;4030;52.362;9.206;2024-03-08T14:11:49;10.90;;;8.00;;
7969;SDS011;4030;52.362;9.206;2024-03-08T14:14:18;8.35;;;7.60;;
7969;SDS011;4030;52.362;9.206;2024-03-08T14:16:48;9.52;;;7.90;;
7969;SDS011;4030;52.362;9.206;2024-03-08T14:19:18;8.30;;;7.50;;
7969;SDS011;4030;52.362;9.206;2024-03-08T14:21:44;8.13;;;7.32;;
7969;SDS011;4030;52.362;9.206;2024-03-08T14:24:10;9.00;;;8.10;;
7969;SDS011;4030;52.362;9.206;2024-03-08T14:26:36;8.60;;;7.78;;
7969;SDS011;4030;52.362;9.206;2024-03-08T14:29:03;8.57;;;7.78;;
7969;SDS011;4030;52.362;9.206;2024-03-08T14:31:30;8.80;;;7.90;;
7969;SDS011;4030;52.362;9.206;2024-03-08T14:33:56;7.93;;;7.13;;
7969;SDS011;4030;52.362;9.206;2024-03-08T14:36:23;8.80;;;7.80;;
7969;SDS011;4030;52.362;9.206;2024-03-08T14:38:50;8.38;;;7.63;;
7969;SDS011;4030;52.362;9.206;2024-03-08T14:41:17;9.13;;;8.23;;
7969;SDS011;4030;52.362;9.206;2024-03-08T14:43:43;8.43;;;7.72;;
7969;SDS011;4030;52.362;9.206;2024-03-08T14:46:10;9.10;;;8.20;;
7969;SDS011;4030;52.362;9.206;2024-03-08T14:48:42;8.82;;;8.02;;
7969;SDS011;4030;52.362;9.206;2024-03-08T14:51:09;9.50;;;8.55;;
7969;SDS011;4030;52.362;9.206;2024-03-08T14:53:39;8.30;;;7.50;;
7969;SDS011;4030;52.362;9.206;2024-03-08T14:56:08;8.57;;;7.70;;
7969;SDS011;4030;52.362;9.206;2024-03-08T14:58:34;8.85;;;7.88;;
7969;SDS011;4030;52.362;9.206;2024-03-08T15:01:00;8.82;;;8.00;;
7969;SDS011;4030;52.362;9.206;2024-03-08T15:03:26;9.13;;;8.25;;
7969;SDS011;4030;52.362;9.206;2024-03-08T15:05:53;8.95;;;8.05;;